createdAt,value
2023-04-21T00:01:46.276Z,101048.53
2023-04-21T00:04:13.990Z,101059.44
2023-04-21T00:06:41.732Z,101063.59
2023-04-21T00:09:09.165Z,101057.09
2023-04-21T00:11:36.924Z,101061.41
2023-04-21T00:14:04.155Z,101060.16
2023-04-21T00:16:31.826Z,101059.28
2023-04-21T00:18:59.471Z,101054.13
2023-04-21T00:21:27.053Z,101058.50
2023-04-21T00:23:54.292Z,101044.50
2023-04-21T00:26:21.807Z,101054.88
2023-04-21T00:28:50.733Z,101061.34
2023-04-21T00:31:18.279Z,101064.06
2023-04-21T00:33:45.621Z,101070.16
2023-04-21T00:36:13.087Z,101067.72
2023-04-21T00:38:40.269Z,101067.97
2023-04-21T00:41:09.016Z,101054.28
2023-04-21T00:43:58.402Z,101062.94
2023-04-21T00:46:26.101Z,101061.56
2023-04-21T00:48:53.949Z,101062.53
2023-04-21T00:51:21.836Z,101055.09
2023-04-21T00:53:50.881Z,101054.38
2023-04-21T00:56:19.111Z,101060.38
2023-04-21T00:58:46.440Z,101060.13
2023-04-21T01:01:14.926Z,101066.72
2023-04-21T01:03:47.767Z,101055.72
2023-04-21T01:06:15.763Z,101047.06
2023-04-21T01:08:44.052Z,101055.97
2023-04-21T01:11:12.973Z,101045.44
2023-04-21T01:13:41.077Z,101036.31
2023-04-21T01:16:08.877Z,101051.72
2023-04-21T01:18:37.044Z,101039.84
2023-04-21T01:21:06.297Z,101044.59
2023-04-21T01:23:35.005Z,101034.25
2023-04-21T01:26:02.888Z,101045.34
2023-04-21T01:28:30.063Z,101036.53
2023-04-21T01:30:57.867Z,101034.94
2023-04-21T01:33:25.518Z,101044.00
2023-04-21T01:35:53.015Z,101031.78
2023-04-21T01:38:20.387Z,101034.09
2023-04-21T01:40:51.399Z,101034.59
2023-04-21T01:43:21.191Z,101044.97
2023-04-21T01:45:48.767Z,101035.53
2023-04-21T01:48:16.111Z,101034.81
2023-04-21T01:50:43.764Z,101030.31
2023-04-21T01:53:11.276Z,101023.47
2023-04-21T01:55:38.798Z,101026.63
2023-04-21T01:58:09.063Z,101028.69
2023-04-21T02:00:36.818Z,101018.06
2023-04-21T02:03:05.407Z,101030.22
2023-04-21T02:05:33.139Z,101032.81
2023-04-21T02:08:00.560Z,101020.66
2023-04-21T02:10:28.075Z,101028.25
2023-04-21T02:12:55.508Z,101023.41
2023-04-21T02:15:23.054Z,101037.78
2023-04-21T02:17:50.280Z,101023.44
2023-04-21T02:20:17.885Z,101023.47
2023-04-21T02:22:45.134Z,101017.44
2023-04-21T02:25:12.722Z,101032.00
2023-04-21T02:27:39.963Z,101023.66
2023-04-21T02:30:07.991Z,101024.66
2023-04-21T02:32:35.459Z,101024.16
2023-04-21T02:35:05.535Z,101025.56
2023-04-21T02:37:32.773Z,101030.88
2023-04-21T02:40:00.332Z,101025.47
2023-04-21T02:42:27.466Z,101032.44
2023-04-21T02:44:54.961Z,101025.50
2023-04-21T02:47:22.237Z,101025.31
2023-04-21T02:49:49.761Z,101028.00
2023-04-21T02:52:16.990Z,101030.53
2023-04-21T02:54:44.455Z,101031.50
2023-04-21T02:57:11.724Z,101039.00
2023-04-21T02:59:40.572Z,101026.53
2023-04-21T03:02:07.916Z,101022.28
2023-04-21T03:04:39.472Z,101018.91
2023-04-21T03:07:11.990Z,101026.50
2023-04-21T03:09:40.713Z,101023.41
2023-04-21T03:12:08.013Z,101021.56
2023-04-21T03:14:36.817Z,101018.91
2023-04-21T03:17:04.007Z,101016.16
2023-04-21T03:19:33.221Z,101008.66
2023-04-21T03:22:00.460Z,101012.91
2023-04-21T03:24:28.313Z,101008.88
2023-04-21T03:26:57.054Z,101015.94
2023-04-21T03:29:24.779Z,101008.34
2023-04-21T03:31:51.978Z,101016.16
2023-04-21T03:34:19.748Z,100998.16
2023-04-21T03:36:47.162Z,101010.00
2023-04-21T03:39:20.030Z,101008.31
2023-04-21T03:41:48.911Z,101003.94
2023-04-21T03:44:16.370Z,101004.00
2023-04-21T03:46:43.546Z,101005.47
2023-04-21T03:49:11.208Z,101009.50
2023-04-21T03:51:38.374Z,101000.81
2023-04-21T03:54:06.087Z,101011.59
2023-04-21T03:56:33.242Z,101001.09
2023-04-21T03:59:00.944Z,101008.31
2023-04-21T04:01:28.125Z,101005.44
2023-04-21T04:03:56.042Z,101010.66
2023-04-21T04:06:23.314Z,101009.34
2023-04-21T04:08:50.779Z,101011.50
2023-04-21T04:11:17.984Z,101011.63
2023-04-21T04:13:45.594Z,101017.28
2023-04-21T04:16:12.816Z,101011.25
2023-04-21T04:18:40.404Z,101013.16
2023-04-21T04:21:08.271Z,101004.94
2023-04-21T04:23:35.789Z,101008.06
2023-04-21T04:26:05.787Z,101002.75
2023-04-21T04:28:33.791Z,101018.28
2023-04-21T04:31:01.202Z,101026.44
2023-04-21T04:33:29.082Z,101026.47
2023-04-21T04:35:56.434Z,101025.16
2023-04-21T04:38:24.083Z,101027.84
2023-04-21T04:40:55.296Z,101028.41
2023-04-21T04:43:23.201Z,101023.09
2023-04-21T04:45:50.358Z,101026.63
2023-04-21T04:48:17.927Z,101027.94
2023-04-21T04:50:45.408Z,101025.25
2023-04-21T04:53:13.099Z,101040.00
2023-04-21T04:55:40.284Z,101016.81
2023-04-21T04:58:07.892Z,101031.09
2023-04-21T05:00:35.112Z,101039.78
2023-04-21T05:03:02.700Z,101021.72
2023-04-21T05:05:30.087Z,101029.59
2023-04-21T05:07:58.061Z,101036.75
2023-04-21T05:10:25.561Z,101032.84
2023-04-21T05:12:53.075Z,101039.50
2023-04-21T05:15:20.329Z,101035.78
2023-04-21T05:17:47.825Z,101035.50
2023-04-21T05:20:15.424Z,101037.06
2023-04-21T05:22:42.896Z,101036.75
2023-04-21T05:25:15.974Z,101039.25
2023-04-21T05:27:43.744Z,101029.34
2023-04-21T05:30:11.531Z,101026.59
2023-04-21T05:32:39.144Z,101022.09
2023-04-21T05:35:06.787Z,101026.16
2023-04-21T05:37:34.366Z,101025.66
2023-04-21T05:40:01.549Z,101032.47
2023-04-21T05:42:29.137Z,101030.28
2023-04-21T05:44:56.352Z,101022.34
2023-04-21T05:47:23.899Z,101020.41
2023-04-21T05:49:54.158Z,101022.22
2023-04-21T05:52:21.979Z,101019.88
2023-04-21T05:54:49.291Z,101023.31
2023-04-21T05:57:17.852Z,101021.44
2023-04-21T05:59:45.113Z,101022.16
2023-04-21T06:02:12.952Z,101027.94
2023-04-21T06:04:40.495Z,101023.78
2023-04-21T06:07:10.439Z,101028.66
2023-04-21T06:09:38.374Z,101029.72
2023-04-21T06:12:06.353Z,101034.03
2023-04-21T06:14:33.781Z,101023.88
2023-04-21T06:17:01.278Z,101025.28
2023-04-21T06:19:28.471Z,101029.28
2023-04-21T06:21:57.197Z,101022.03
2023-04-21T06:24:27.135Z,101026.09
2023-04-21T06:26:54.585Z,101022.94
2023-04-21T06:29:21.740Z,101022.34
2023-04-21T06:31:49.302Z,101021.69
2023-04-21T06:34:16.620Z,101024.97
2023-04-21T06:36:44.194Z,101014.22
2023-04-21T06:39:11.492Z,101009.03
2023-04-21T06:41:38.941Z,101009.09
2023-04-21T06:44:06.260Z,101027.72
2023-04-21T06:46:33.790Z,101024.56
2023-04-21T06:49:01.095Z,101026.91
2023-04-21T06:51:28.730Z,101023.22
2023-04-21T06:53:56.001Z,101011.44
2023-04-21T06:56:23.442Z,101031.22
2023-04-21T06:58:50.718Z,101023.72
2023-04-21T07:01:18.299Z,101025.03
2023-04-21T07:03:45.992Z,101029.41
2023-04-21T07:06:13.598Z,101035.00
2023-04-21T07:08:41.530Z,101030.75
2023-04-21T07:11:09.113Z,101028.19
2023-04-21T07:13:36.390Z,101024.44
2023-04-21T07:16:04.262Z,101022.09
2023-04-21T07:18:32.656Z,101022.03
2023-04-21T07:21:01.125Z,101023.53
2023-04-21T07:23:28.478Z,101028.72
2023-04-21T07:25:59.120Z,101023.00
2023-04-21T07:28:26.730Z,101028.25
2023-04-21T07:30:54.259Z,101019.06
2023-04-21T07:33:21.516Z,101030.66
2023-04-21T07:35:49.213Z,101026.50
2023-04-21T07:38:16.398Z,101021.97
2023-04-21T07:40:43.989Z,101026.94
2023-04-21T07:43:11.152Z,101024.78
2023-04-21T07:45:38.639Z,101014.69
2023-04-21T07:48:07.652Z,101030.38
2023-04-21T07:50:37.936Z,101029.66
2023-04-21T07:53:05.499Z,101024.88
2023-04-21T07:55:33.043Z,101022.81
2023-04-21T07:58:00.253Z,101019.03
2023-04-21T08:00:27.765Z,101020.81
2023-04-21T08:02:55.150Z,101012.38
2023-04-21T08:05:22.884Z,101013.53
2023-04-21T08:07:50.440Z,101014.75
2023-04-21T08:10:17.956Z,101021.03
2023-04-21T08:12:45.418Z,101017.88
2023-04-21T08:15:13.000Z,101008.19
2023-04-21T08:17:40.235Z,101007.44
2023-04-21T08:20:08.578Z,101003.31
2023-04-21T08:22:36.649Z,101015.06
2023-04-21T08:25:05.735Z,101003.94
2023-04-21T08:27:32.938Z,101006.41
2023-04-21T08:30:00.583Z,101006.31
2023-04-21T08:32:27.836Z,101000.78
2023-04-21T08:34:55.589Z,100998.03
2023-04-21T08:37:23.449Z,101001.13
2023-04-21T08:39:51.013Z,101014.88
2023-04-21T08:42:18.987Z,100998.28
2023-04-21T08:44:47.269Z,100993.19
2023-04-21T08:47:15.884Z,100989.03
2023-04-21T08:49:45.304Z,100999.53
2023-04-21T08:52:14.470Z,100997.59
2023-04-21T08:54:42.805Z,101002.56
2023-04-21T08:57:15.208Z,101010.25
2023-04-21T08:59:45.081Z,101004.63
2023-04-21T09:02:15.570Z,101003.19
2023-04-21T09:04:43.381Z,100994.47
2023-04-21T09:07:11.811Z,100990.75
2023-04-21T09:09:58.278Z,100984.31
2023-04-21T09:12:25.529Z,100975.94
2023-04-21T09:14:53.128Z,100989.75
2023-04-21T09:17:27.545Z,100986.66
2023-04-21T09:19:55.029Z,100986.13
2023-04-21T09:22:27.548Z,100988.28
2023-04-21T09:25:02.535Z,100977.19
2023-04-21T09:27:29.857Z,100980.09
2023-04-21T09:30:03.860Z,100983.03
2023-04-21T09:32:36.836Z,100974.66
2023-04-21T09:35:04.873Z,100980.38
2023-04-21T09:37:36.113Z,100976.69
2023-04-21T09:40:05.156Z,100982.84
2023-04-21T09:42:35.467Z,100979.22
2023-04-21T09:47:40.499Z,100971.78
2023-04-21T09:50:12.538Z,100974.63
2023-04-21T09:52:42.170Z,100968.97
2023-04-21T09:55:13.658Z,100978.19
2023-04-21T09:57:43.098Z,100964.28
2023-04-21T10:00:12.538Z,100965.09
2023-04-21T10:02:45.466Z,100980.22
2023-04-21T10:05:13.157Z,100973.22
2023-04-21T10:07:40.574Z,100968.16
2023-04-21T10:10:16.787Z,100960.81
2023-04-21T10:12:44.846Z,100947.81
2023-04-21T10:15:31.818Z,100961.16
2023-04-21T10:18:21.824Z,100957.59
2023-04-21T10:21:09.017Z,100960.06
2023-04-21T10:23:37.622Z,100962.66
2023-04-21T10:26:07.688Z,100965.09
2023-04-21T10:28:55.127Z,100962.78
2023-04-21T10:31:27.191Z,100964.97
2023-04-21T10:34:07.501Z,100963.81
2023-04-21T10:36:47.316Z,100952.69
2023-04-21T10:39:53.252Z,100956.84
2023-04-21T10:42:28.419Z,100945.06
2023-04-21T10:44:58.590Z,100949.97
2023-04-21T10:47:29.517Z,100949.31
2023-04-21T10:49:58.290Z,100943.38
2023-04-21T10:52:35.947Z,100938.72
2023-04-21T10:55:10.682Z,100937.47
2023-04-21T10:57:43.359Z,100932.72
2023-04-21T11:00:12.560Z,100932.84
2023-04-21T11:02:42.545Z,100941.66
2023-04-21T11:05:11.785Z,100935.94
2023-04-21T11:07:39.585Z,100932.53
2023-04-21T11:10:08.498Z,100931.38
2023-04-21T11:12:40.491Z,100929.03
2023-04-21T11:15:13.318Z,100918.81
2023-04-21T11:17:43.581Z,100915.44
2023-04-21T11:20:11.306Z,100911.91
2023-04-21T11:22:39.071Z,100910.16
2023-04-21T11:25:16.409Z,100908.28
2023-04-21T11:27:53.914Z,100916.31
2023-04-21T11:30:21.542Z,100912.94
2023-04-21T11:32:56.098Z,100902.53
2023-04-21T11:35:23.467Z,100897.09
2023-04-21T11:37:52.198Z,100891.53
2023-04-21T11:40:19.678Z,100902.47
2023-04-21T11:42:47.209Z,100898.47
2023-04-21T11:45:22.255Z,100899.25
2023-04-21T11:47:50.363Z,100902.47
2023-04-21T11:50:34.313Z,100899.91
2023-04-21T11:53:02.996Z,100885.41
2023-04-21T11:55:30.273Z,100888.53
2023-04-21T11:57:57.958Z,100890.75
2023-04-21T12:00:31.426Z,100878.00
2023-04-21T12:02:59.159Z,100877.75
2023-04-21T12:05:35.997Z,100877.38
2023-04-21T12:08:06.526Z,100869.16
2023-04-21T12:10:34.012Z,100864.72
2023-04-21T12:13:01.952Z,100870.13
2023-04-21T12:15:30.571Z,100867.97
2023-04-21T12:17:58.134Z,100863.78
2023-04-21T12:20:28.514Z,100866.72
2023-04-21T12:22:56.664Z,100862.06
2023-04-21T12:25:25.256Z,100862.25
2023-04-21T12:27:54.475Z,100856.09
2023-04-21T12:30:22.039Z,100852.81
2023-04-21T12:32:49.477Z,100852.09
2023-04-21T12:35:17.208Z,100837.81
2023-04-21T12:37:45.143Z,100848.69
2023-04-21T12:40:12.720Z,100854.84
2023-04-21T12:42:39.923Z,100848.88
2023-04-21T12:45:07.949Z,100848.63
2023-04-21T12:47:37.161Z,100844.56
2023-04-21T12:50:05.447Z,100842.97
2023-04-21T12:52:32.612Z,100833.84
2023-04-21T12:55:00.171Z,100833.34
2023-04-21T12:57:27.535Z,100825.09
2023-04-21T12:59:56.030Z,100831.63
2023-04-21T13:02:23.412Z,100824.16
2023-04-21T13:04:51.032Z,100821.75
2023-04-21T13:07:21.383Z,100817.56
2023-04-21T13:09:48.968Z,100828.50
2023-04-21T13:12:16.513Z,100824.16
2023-04-21T13:14:44.119Z,100825.28
2023-04-21T13:17:11.429Z,100818.81
2023-04-21T13:19:38.973Z,100817.41
2023-04-21T13:22:06.149Z,100811.03
2023-04-21T13:24:34.070Z,100802.97
2023-04-21T13:27:04.452Z,100796.59
2023-04-21T13:29:34.528Z,100800.31
2023-04-21T13:32:03.308Z,100797.03
2023-04-21T13:34:33.428Z,100791.88
2023-04-21T13:37:01.726Z,100787.88
2023-04-21T13:39:29.420Z,100792.22
2023-04-21T13:41:56.796Z,100787.19
2023-04-21T13:44:24.558Z,100789.91
2023-04-21T13:46:53.963Z,100784.13
2023-04-21T13:49:21.536Z,100775.13
2023-04-21T13:51:48.892Z,100778.03
2023-04-21T13:54:16.575Z,100776.44
2023-04-21T13:56:43.847Z,100769.84
2023-04-21T13:59:11.396Z,100769.97
2023-04-21T14:01:38.753Z,100766.84
2023-04-21T14:04:07.003Z,100768.91
2023-04-21T14:06:34.430Z,100769.31
2023-04-21T14:09:01.953Z,100763.22
2023-04-21T14:11:29.302Z,100752.00
2023-04-21T14:14:09.149Z,100751.63
2023-04-21T14:16:38.714Z,100756.88
2023-04-21T14:19:06.973Z,100750.84
2023-04-21T14:21:34.792Z,100750.16
2023-04-21T14:24:02.504Z,100743.13
2023-04-21T14:26:29.808Z,100751.06
2023-04-21T14:28:57.353Z,100746.91
2023-04-21T14:31:24.855Z,100743.44
2023-04-21T14:33:52.427Z,100738.09
2023-04-21T14:36:19.686Z,100730.63
2023-04-21T14:38:47.249Z,100728.06
2023-04-21T14:41:14.714Z,100732.22
2023-04-21T14:43:42.229Z,100727.22
2023-04-21T14:46:09.569Z,100731.81
2023-04-21T14:48:37.108Z,100731.25
2023-04-21T14:51:06.193Z,100719.19
2023-04-21T14:53:33.778Z,100729.53
2023-04-21T14:56:01.005Z,100727.69
2023-04-21T14:58:28.552Z,100717.56
2023-04-21T15:00:56.445Z,100712.47
2023-04-21T15:03:24.297Z,100702.81
2023-04-21T15:05:51.813Z,100703.69
2023-04-21T15:08:19.516Z,100701.75
2023-04-21T15:10:47.727Z,100708.78
2023-04-21T15:13:15.326Z,100694.19
2023-04-21T15:15:42.706Z,100692.94
2023-04-21T15:18:10.648Z,100693.72
2023-04-21T15:20:45.380Z,100689.59
2023-04-21T15:23:13.538Z,100685.50
2023-04-21T15:25:40.963Z,100692.22
2023-04-21T15:28:08.825Z,100689.22
2023-04-21T15:30:36.251Z,100693.66
2023-04-21T15:33:03.940Z,100679.06
2023-04-21T15:35:31.242Z,100680.59
2023-04-21T15:37:58.806Z,100681.38
2023-04-21T15:40:26.282Z,100676.91
2023-04-21T15:42:53.981Z,100673.75
2023-04-21T15:45:21.262Z,100674.00
2023-04-21T15:47:48.825Z,100664.72
2023-04-21T15:50:16.361Z,100671.59
2023-04-21T15:52:44.421Z,100661.09
2023-04-21T15:55:12.228Z,100665.66
2023-04-21T15:57:39.881Z,100665.09
2023-04-21T16:00:10.621Z,100674.03
2023-04-21T16:02:38.434Z,100659.31
2023-04-21T16:05:06.452Z,100660.69
2023-04-21T16:07:34.262Z,100661.69
2023-04-21T16:10:01.457Z,100665.44
2023-04-21T16:12:29.055Z,100648.59
2023-04-21T16:15:04.023Z,100662.19
2023-04-21T16:17:37.326Z,100665.25
2023-04-21T16:20:05.776Z,100649.25
2023-04-21T16:22:33.473Z,100656.44
2023-04-21T16:25:01.798Z,100653.06
2023-04-21T16:27:29.434Z,100660.25
2023-04-21T16:29:56.779Z,100652.34
2023-04-21T16:32:24.500Z,100655.25
2023-04-21T16:34:51.984Z,100651.75
2023-04-21T16:37:19.637Z,100653.94
2023-04-21T16:39:46.847Z,100650.50
2023-04-21T16:42:14.443Z,100649.44
2023-04-21T16:44:41.779Z,100654.25
2023-04-21T16:47:09.352Z,100653.41
2023-04-21T16:49:36.669Z,100651.53
2023-04-21T16:52:04.199Z,100647.44
2023-04-21T16:54:31.507Z,100641.06
2023-04-21T16:56:59.024Z,100641.50
2023-04-21T16:59:26.201Z,100639.63
2023-04-21T17:01:53.750Z,100632.44
2023-04-21T17:04:21.140Z,100636.81
2023-04-21T17:06:48.703Z,100638.44
2023-04-21T17:09:16.198Z,100631.25
2023-04-21T17:11:45.955Z,100629.63
2023-04-21T17:14:13.214Z,100627.34
2023-04-21T17:16:40.918Z,100637.28
2023-04-21T17:19:08.114Z,100632.44
2023-04-21T17:21:35.968Z,100619.81
2023-04-21T17:24:03.242Z,100631.00
2023-04-21T17:26:30.824Z,100627.88
2023-04-21T17:28:58.044Z,100613.59
2023-04-21T17:31:29.427Z,100621.66
2023-04-21T17:33:57.398Z,100619.16
2023-04-21T17:36:27.602Z,100620.69
2023-04-21T17:38:55.712Z,100620.72
2023-04-21T17:41:26.687Z,100624.97
2023-04-21T17:43:57.215Z,100620.16
2023-04-21T17:46:25.483Z,100622.44
2023-04-21T17:48:52.822Z,100624.81
2023-04-21T17:51:20.514Z,100629.38
2023-04-21T17:53:47.733Z,100621.00
2023-04-21T17:56:15.227Z,100621.97
2023-04-21T17:58:42.501Z,100629.06
2023-04-21T18:01:10.012Z,100631.59
2023-04-21T18:03:37.942Z,100627.78
2023-04-21T18:06:05.889Z,100628.91
2023-04-21T18:08:33.163Z,100629.75
2023-04-21T18:11:00.867Z,100630.19
2023-04-21T18:13:28.081Z,100632.41
2023-04-21T18:15:55.699Z,100630.28
2023-04-21T18:18:23.001Z,100626.25
2023-04-21T18:20:50.612Z,100635.91
2023-04-21T18:23:17.799Z,100630.97
2023-04-21T18:25:47.002Z,100623.81
2023-04-21T18:28:14.480Z,100628.28
2023-04-21T18:30:42.322Z,100619.78
2023-04-21T18:33:11.786Z,100628.38
2023-04-21T18:35:41.256Z,100628.22
2023-04-21T18:38:10.583Z,100626.63
2023-04-21T18:40:38.220Z,100622.28
2023-04-21T18:43:05.614Z,100622.47
2023-04-21T18:45:34.064Z,100627.47
2023-04-21T18:48:01.381Z,100622.84
2023-04-21T18:50:29.077Z,100620.28
2023-04-21T18:52:56.502Z,100616.31
2023-04-21T18:55:24.059Z,100601.59
2023-04-21T18:57:51.320Z,100612.91
2023-04-21T19:00:19.172Z,100605.13
2023-04-21T19:02:48.868Z,100608.19
2023-04-21T19:05:17.104Z,100603.47
2023-04-21T19:07:44.389Z,100602.78
2023-04-21T19:10:11.996Z,100604.41
2023-04-21T19:12:39.596Z,100601.25
2023-04-21T19:15:07.692Z,100593.59
2023-04-21T19:17:35.009Z,100590.16
2023-04-21T19:20:02.713Z,100590.25
2023-04-21T19:22:32.077Z,100595.69
2023-04-21T19:25:00.956Z,100597.88
2023-04-21T19:27:30.076Z,100582.47
2023-04-21T19:29:58.822Z,100592.91
2023-04-21T19:32:26.403Z,100585.81
2023-04-21T19:34:54.062Z,100587.34
2023-04-21T19:37:21.477Z,100581.50
2023-04-21T19:39:48.999Z,100584.25
2023-04-21T19:42:16.212Z,100583.00
2023-04-21T19:44:43.893Z,100580.66
2023-04-21T19:47:11.172Z,100572.34
2023-04-21T19:49:38.692Z,100577.84
2023-04-21T19:52:06.137Z,100568.75
2023-04-21T19:54:33.669Z,100566.44
2023-04-21T19:57:01.800Z,100566.31
2023-04-21T19:59:29.288Z,100565.34
2023-04-21T20:01:56.866Z,100572.06
2023-04-21T20:04:24.562Z,100557.47
2023-04-21T20:06:52.030Z,100568.22
2023-04-21T20:09:19.519Z,100557.13
2023-04-21T20:11:46.862Z,100561.78
2023-04-21T20:14:14.353Z,100561.56
2023-04-21T20:16:43.083Z,100560.72
2023-04-21T20:19:11.554Z,100552.56
2023-04-21T20:21:39.202Z,100557.94
2023-04-21T20:24:08.639Z,100545.81
2023-04-21T20:26:37.003Z,100548.75
2023-04-21T20:29:04.512Z,100551.19
2023-04-21T20:31:31.880Z,100546.34
2023-04-21T20:33:59.362Z,100548.25
2023-04-21T20:36:27.654Z,100546.19
2023-04-21T20:38:57.675Z,100547.66
2023-04-21T20:41:24.853Z,100544.75
2023-04-21T20:43:52.924Z,100545.72
2023-04-21T20:46:20.190Z,100548.66
2023-04-21T20:48:47.688Z,100540.03
2023-04-21T20:51:14.861Z,100532.81
2023-04-21T20:53:42.376Z,100542.94
2023-04-21T20:56:09.575Z,100532.19
2023-04-21T20:58:37.119Z,100535.75
2023-04-21T21:01:04.407Z,100529.78
2023-04-21T21:03:32.168Z,100532.59
2023-04-21T21:05:59.509Z,100530.03
2023-04-21T21:08:28.119Z,100527.47
2023-04-21T21:10:55.442Z,100530.88
2023-04-21T21:13:22.971Z,100522.72
2023-04-21T21:15:50.300Z,100522.59
2023-04-21T21:18:17.865Z,100529.06
2023-04-21T21:20:45.167Z,100523.56
2023-04-21T21:23:12.796Z,100534.06
2023-04-21T21:25:40.064Z,100515.66
2023-04-21T21:28:07.537Z,100514.81
2023-04-21T21:30:34.827Z,100527.09
2023-04-21T21:33:02.432Z,100516.06
2023-04-21T21:35:29.600Z,100515.19
2023-04-21T21:37:57.277Z,100512.03
2023-04-21T21:40:24.474Z,100511.53
2023-04-21T21:42:51.954Z,100504.75
2023-04-21T21:45:19.164Z,100517.38
2023-04-21T21:47:46.711Z,100516.66
2023-04-21T21:50:13.891Z,100506.91
2023-04-21T21:52:41.443Z,100503.25
2023-04-21T21:55:09.087Z,100506.66
2023-04-21T21:57:37.019Z,100498.63
2023-04-21T22:00:08.237Z,100505.91
2023-04-21T22:02:36.332Z,100492.16
2023-04-21T22:05:06.357Z,100498.22
2023-04-21T22:07:35.448Z,100498.38
2023-04-21T22:10:03.740Z,100503.75
2023-04-21T22:12:33.060Z,100493.53
2023-04-21T22:15:00.411Z,100489.66
2023-04-21T22:17:29.573Z,100485.25
2023-04-21T22:19:57.841Z,100494.16
2023-04-21T22:22:25.396Z,100488.81
2023-04-21T22:24:52.633Z,100501.66
2023-04-21T22:27:20.093Z,100497.16
2023-04-21T22:29:47.295Z,100482.56
2023-04-21T22:32:15.217Z,100483.91
2023-04-21T22:34:42.453Z,100490.19
2023-04-21T22:37:10.327Z,100481.72
2023-04-21T22:39:38.604Z,100475.03
2023-04-21T22:42:06.962Z,100486.84
2023-04-21T22:44:34.256Z,100476.28
2023-04-21T22:47:01.815Z,100474.56
2023-04-21T22:49:29.227Z,100479.09
2023-04-21T22:51:56.792Z,100473.38
2023-04-21T22:54:23.964Z,100478.59
2023-04-21T22:56:51.821Z,100474.09
2023-04-21T22:59:19.058Z,100468.84
2023-04-21T23:01:46.557Z,100464.44
2023-04-21T23:04:14.049Z,100472.34
2023-04-21T23:06:43.652Z,100470.78
2023-04-21T23:09:11.243Z,100459.94
2023-04-21T23:11:38.740Z,100461.56
2023-04-21T23:14:05.939Z,100469.22
2023-04-21T23:16:33.419Z,100455.09
2023-04-21T23:19:00.716Z,100464.34
2023-04-21T23:21:28.779Z,100461.56
2023-04-21T23:23:55.970Z,100461.69
2023-04-21T23:26:23.525Z,100452.66
2023-04-21T23:28:50.732Z,100456.09
2023-04-21T23:31:18.283Z,100459.38
2023-04-21T23:33:45.578Z,100453.91
2023-04-21T23:36:13.168Z,100464.59
2023-04-21T23:38:40.401Z,100452.41
2023-04-21T23:41:07.865Z,100453.50
2023-04-21T23:43:37.206Z,100446.56
2023-04-21T23:46:04.761Z,100456.00
2023-04-21T23:48:32.115Z,100453.09
2023-04-21T23:50:59.745Z,100447.75
2023-04-21T23:53:27.125Z,100450.47
2023-04-21T23:55:54.725Z,100446.84
2023-04-21T23:58:22.014Z,100445.63
